sensor_id;sensor_type;location;lat;lon;timestamp;P1;durP1;ratioP1;P2;durP2;ratioP2
55186;SDS011;55457;52.002;5.464;2023-04-24T00:02:08;0.60;;;0.40;;
55186;SDS011;55457;52.002;5.464;2023-04-24T00:04:35;2.13;;;0.60;;
55186;SDS011;55457;52.002;5.464;2023-04-24T00:07:05;0.47;;;0.40;;
55186;SDS011;55457;52.002;5.464;2023-04-24T00:09:31;0.85;;;0.60;;
55186;SDS011;55457;52.002;5.464;2023-04-24T00:11:57;1.58;;;0.60;;
55186;SDS011;55457;52.002;5.464;2023-04-24T00:14:22;1.02;;;0.52;;
55186;SDS011;55457;52.002;5.464;2023-04-24T00:16:48;0.40;;;0.40;;
55186;SDS011;55457;52.002;5.464;2023-04-24T00:19:13;1.20;;;0.52;;
55186;SDS011;55457;52.002;5.464;2023-04-24T00:21:38;0.35;;;0.30;;
55186;SDS011;55457;52.002;5.464;2023-04-24T00:24:04;1.35;;;0.50;;
55186;SDS011;55457;52.002;5.464;2023-04-24T00:26:30;0.75;;;0.40;;
55186;SDS011;55457;52.002;5.464;2023-04-24T00:28:55;2.05;;;0.50;;
55186;SDS011;55457;52.002;5.464;2023-04-24T00:31:21;1.02;;;0.50;;
55186;SDS011;55457;52.002;5.464;2023-04-24T00:33:46;0.47;;;0.30;;
55186;SDS011;55457;52.002;5.464;2023-04-24T00:36:11;0.35;;;0.35;;
55186;SDS011;55457;52.002;5.464;2023-04-24T00:38:36;0.30;;;0.30;;
55186;SDS011;55457;52.002;5.464;2023-04-24T00:41:02;0.43;;;0.20;;
55186;SDS011;55457;52.002;5.464;2023-04-24T00:43:27;0.35;;;0.25;;
55186;SDS011;55457;52.002;5.464;2023-04-24T00:45:53;2.25;;;0.60;;
55186;SDS011;55457;52.002;5.464;2023-04-24T00:48:19;0.98;;;0.50;;
55186;SDS011;55457;52.002;5.464;2023-04-24T00:50:45;0.68;;;0.30;;
55186;SDS011;55457;52.002;5.464;2023-04-24T00:53:10;0.73;;;0.47;;
55186;SDS011;55457;52.002;5.464;2023-04-24T00:55:36;0.93;;;0.30;;
55186;SDS011;55457;52.002;5.464;2023-04-24T00:58:02;0.73;;;0.30;;
55186;SDS011;55457;52.002;5.464;2023-04-24T01:00:28;0.30;;;0.28;;
55186;SDS011;55457;52.002;5.464;2023-04-24T01:02:55;1.52;;;0.57;;
55186;SDS011;55457;52.002;5.464;2023-04-24T01:05:24;0.43;;;0.30;;
55186;SDS011;55457;52.002;5.464;2023-04-24T01:07:49;0.80;;;0.50;;
55186;SDS011;55457;52.002;5.464;2023-04-24T01:10:15;0.70;;;0.47;;
55186;SDS011;55457;52.002;5.464;2023-04-24T01:12:42;0.50;;;0.40;;
55186;SDS011;55457;52.002;5.464;2023-04-24T01:15:08;0.52;;;0.30;;
55186;SDS011;55457;52.002;5.464;2023-04-24T01:17:34;0.68;;;0.40;;
55186;SDS011;55457;52.002;5.464;2023-04-24T01:20:00;0.38;;;0.30;;
55186;SDS011;55457;52.002;5.464;2023-04-24T01:22:26;1.98;;;0.40;;
55186;SDS011;55457;52.002;5.464;2023-04-24T01:24:52;0.70;;;0.40;;
55186;SDS011;55457;52.002;5.464;2023-04-24T01:27:18;0.57;;;0.40;;
55186;SDS011;55457;52.002;5.464;2023-04-24T01:29:44;0.38;;;0.38;;
55186;SDS011;55457;52.002;5.464;2023-04-24T01:32:10;0.65;;;0.50;;
55186;SDS011;55457;52.002;5.464;2023-04-24T01:34:36;0.50;;;0.40;;
55186;SDS011;55457;52.002;5.464;2023-04-24T01:37:02;0.65;;;0.30;;
55186;SDS011;55457;52.002;5.464;2023-04-24T01:39:27;1.65;;;0.35;;
55186;SDS011;55457;52.002;5.464;2023-04-24T01:41:53;0.95;;;0.40;;
55186;SDS011;55457;52.002;5.464;2023-04-24T01:44:19;1.33;;;0.55;;
55186;SDS011;55457;52.002;5.464;2023-04-24T01:46:45;0.50;;;0.20;;
55186;SDS011;55457;52.002;5.464;2023-04-24T01:49:11;2.38;;;0.45;;
55186;SDS011;55457;52.002;5.464;2023-04-24T01:51:36;0.43;;;0.38;;
55186;SDS011;55457;52.002;5.464;2023-04-24T01:54:02;0.50;;;0.20;;
55186;SDS011;55457;52.002;5.464;2023-04-24T01:56:30;0.77;;;0.50;;
55186;SDS011;55457;52.002;5.464;2023-04-24T01:58:58;0.30;;;0.30;;
55186;SDS011;55457;52.002;5.464;2023-04-24T02:01:24;1.30;;;0.38;;
55186;SDS011;55457;52.002;5.464;2023-04-24T02:03:50;0.68;;;0.40;;
55186;SDS011;55457;52.002;5.464;2023-04-24T02:06:15;0.35;;;0.30;;
55186;SDS011;55457;52.002;5.464;2023-04-24T02:08:41;0.38;;;0.38;;
55186;SDS011;55457;52.002;5.464;2023-04-24T02:11:08;0.70;;;0.50;;
55186;SDS011;55457;52.002;5.464;2023-04-24T02:13:34;0.50;;;0.30;;
55186;SDS011;55457;52.002;5.464;2023-04-24T02:15:59;0.50;;;0.32;;
55186;SDS011;55457;52.002;5.464;2023-04-24T02:18:24;0.85;;;0.50;;
55186;SDS011;55457;52.002;5.464;2023-04-24T02:20:49;0.50;;;0.35;;
55186;SDS011;55457;52.002;5.464;2023-04-24T02:23:15;0.93;;;0.45;;
55186;SDS011;55457;52.002;5.464;2023-04-24T02:25:40;0.75;;;0.40;;
55186;SDS011;55457;52.002;5.464;2023-04-24T02:28:06;0.45;;;0.32;;
55186;SDS011;55457;52.002;5.464;2023-04-24T02:30:31;1.33;;;0.50;;
55186;SDS011;55457;52.002;5.464;2023-04-24T02:32:56;0.70;;;0.50;;
55186;SDS011;55457;52.002;5.464;2023-04-24T02:35:22;0.45;;;0.30;;
55186;SDS011;55457;52.002;5.464;2023-04-24T02:37:47;1.63;;;0.40;;
55186;SDS011;55457;52.002;5.464;2023-04-24T02:40:13;0.90;;;0.40;;
55186;SDS011;55457;52.002;5.464;2023-04-24T02:42:38;0.30;;;0.30;;
55186;SDS011;55457;52.002;5.464;2023-04-24T02:45:03;0.50;;;0.43;;
55186;SDS011;55457;52.002;5.464;2023-04-24T02:47:30;0.82;;;0.50;;
55186;SDS011;55457;52.002;5.464;2023-04-24T02:49:55;1.13;;;0.50;;
55186;SDS011;55457;52.002;5.464;2023-04-24T02:52:20;0.88;;;0.50;;
55186;SDS011;55457;52.002;5.464;2023-04-24T02:54:46;0.47;;;0.40;;
55186;SDS011;55457;52.002;5.464;2023-04-24T02:57:11;0.55;;;0.40;;
55186;SDS011;55457;52.002;5.464;2023-04-24T02:59:36;1.15;;;0.43;;
55186;SDS011;55457;52.002;5.464;2023-04-24T03:02:02;0.30;;;0.30;;
55186;SDS011;55457;52.002;5.464;2023-04-24T03:04:27;0.40;;;0.30;;
55186;SDS011;55457;52.002;5.464;2023-04-24T03:06:52;0.35;;;0.35;;
55186;SDS011;55457;52.002;5.464;2023-04-24T03:09:19;0.52;;;0.38;;
55186;SDS011;55457;52.002;5.464;2023-04-24T03:11:45;0.57;;;0.40;;
55186;SDS011;55457;52.002;5.464;2023-04-24T03:14:10;0.50;;;0.50;;
55186;SDS011;55457;52.002;5.464;2023-04-24T03:16:36;0.60;;;0.52;;
55186;SDS011;55457;52.002;5.464;2023-04-24T03:19:02;0.50;;;0.50;;
55186;SDS011;55457;52.002;5.464;2023-04-24T03:21:27;0.75;;;0.52;;
55186;SDS011;55457;52.002;5.464;2023-04-24T03:23:52;0.28;;;0.28;;
55186;SDS011;55457;52.002;5.464;2023-04-24T03:26:18;0.98;;;0.50;;
55186;SDS011;55457;52.002;5.464;2023-04-24T03:28:43;0.50;;;0.50;;
55186;SDS011;55457;52.002;5.464;2023-04-24T03:31:08;0.57;;;0.40;;
55186;SDS011;55457;52.002;5.464;2023-04-24T03:33:34;0.35;;;0.35;;
55186;SDS011;55457;52.002;5.464;2023-04-24T03:36:00;0.50;;;0.40;;
55186;SDS011;55457;52.002;5.464;2023-04-24T03:38:26;0.93;;;0.40;;
55186;SDS011;55457;52.002;5.464;2023-04-24T03:40:51;0.60;;;0.40;;
55186;SDS011;55457;52.002;5.464;2023-04-24T03:43:17;0.50;;;0.30;;
55186;SDS011;55457;52.002;5.464;2023-04-24T03:45:42;0.40;;;0.40;;
55186;SDS011;55457;52.002;5.464;2023-04-24T03:48:07;0.52;;;0.45;;
55186;SDS011;55457;52.002;5.464;2023-04-24T03:50:32;0.93;;;0.60;;
55186;SDS011;55457;52.002;5.464;2023-04-24T03:52:58;0.52;;;0.32;;
55186;SDS011;55457;52.002;5.464;2023-04-24T03:55:23;0.50;;;0.32;;
55186;SDS011;55457;52.002;5.464;2023-04-24T03:57:48;0.52;;;0.52;;
55186;SDS011;55457;52.002;5.464;2023-04-24T04:00:14;0.70;;;0.40;;
55186;SDS011;55457;52.002;5.464;2023-04-24T04:02:40;0.50;;;0.50;;
55186;SDS011;55457;52.002;5.464;2023-04-24T04:05:05;1.05;;;0.47;;
55186;SDS011;55457;52.002;5.464;2023-04-24T04:07:31;0.40;;;0.40;;
55186;SDS011;55457;52.002;5.464;2023-04-24T04:09:56;0.57;;;0.40;;
55186;SDS011;55457;52.002;5.464;2023-04-24T04:12:21;0.43;;;0.43;;
55186;SDS011;55457;52.002;5.464;2023-04-24T04:14:47;0.65;;;0.52;;
55186;SDS011;55457;52.002;5.464;2023-04-24T04:17:13;1.55;;;0.55;;
55186;SDS011;55457;52.002;5.464;2023-04-24T04:19:39;0.65;;;0.43;;
55186;SDS011;55457;52.002;5.464;2023-04-24T04:22:04;0.63;;;0.50;;
55186;SDS011;55457;52.002;5.464;2023-04-24T04:24:29;1.10;;;0.47;;
55186;SDS011;55457;52.002;5.464;2023-04-24T04:26:55;0.45;;;0.40;;
55186;SDS011;55457;52.002;5.464;2023-04-24T04:29:21;0.60;;;0.40;;
55186;SDS011;55457;52.002;5.464;2023-04-24T04:31:47;0.73;;;0.50;;
55186;SDS011;55457;52.002;5.464;2023-04-24T04:34:13;0.52;;;0.30;;
55186;SDS011;55457;52.002;5.464;2023-04-24T04:36:39;0.70;;;0.60;;
55186;SDS011;55457;52.002;5.464;2023-04-24T04:39:05;0.63;;;0.40;;
55186;SDS011;55457;52.002;5.464;2023-04-24T04:41:30;0.70;;;0.47;;
55186;SDS011;55457;52.002;5.464;2023-04-24T04:43:56;0.52;;;0.40;;
55186;SDS011;55457;52.002;5.464;2023-04-24T04:46:23;1.15;;;0.40;;
55186;SDS011;55457;52.002;5.464;2023-04-24T04:48:51;1.02;;;0.47;;
55186;SDS011;55457;52.002;5.464;2023-04-24T04:51:17;0.40;;;0.40;;
55186;SDS011;55457;52.002;5.464;2023-04-24T04:53:42;0.57;;;0.50;;
55186;SDS011;55457;52.002;5.464;2023-04-24T04:56:07;0.32;;;0.32;;
55186;SDS011;55457;52.002;5.464;2023-04-24T04:58:33;1.08;;;0.40;;
55186;SDS011;55457;52.002;5.464;2023-04-24T05:00:58;0.65;;;0.65;;
55186;SDS011;55457;52.002;5.464;2023-04-24T05:03:24;0.40;;;0.40;;
55186;SDS011;55457;52.002;5.464;2023-04-24T05:05:49;0.70;;;0.40;;
55186;SDS011;55457;52.002;5.464;2023-04-24T05:08:14;0.68;;;0.30;;
55186;SDS011;55457;52.002;5.464;2023-04-24T05:10:40;0.25;;;0.20;;
55186;SDS011;55457;52.002;5.464;2023-04-24T05:13:05;0.25;;;0.25;;
55186;SDS011;55457;52.002;5.464;2023-04-24T05:15:30;0.50;;;0.35;;
55186;SDS011;55457;52.002;5.464;2023-04-24T05:17:56;1.17;;;0.45;;
55186;SDS011;55457;52.002;5.464;2023-04-24T05:20:21;0.85;;;0.40;;
55186;SDS011;55457;52.002;5.464;2023-04-24T05:22:46;0.30;;;0.30;;
55186;SDS011;55457;52.002;5.464;2023-04-24T05:25:12;0.40;;;0.30;;
55186;SDS011;55457;52.002;5.464;2023-04-24T05:27:37;0.40;;;0.40;;
55186;SDS011;55457;52.002;5.464;2023-04-24T05:30:03;0.30;;;0.30;;
55186;SDS011;55457;52.002;5.464;2023-04-24T05:32:29;0.32;;;0.32;;
55186;SDS011;55457;52.002;5.464;2023-04-24T05:34:55;0.32;;;0.30;;
55186;SDS011;55457;52.002;5.464;2023-04-24T05:37:20;0.60;;;0.50;;
55186;SDS011;55457;52.002;5.464;2023-04-24T05:39:45;0.75;;;0.47;;
55186;SDS011;55457;52.002;5.464;2023-04-24T05:42:11;0.55;;;0.55;;
55186;SDS011;55457;52.002;5.464;2023-04-24T05:44:36;0.40;;;0.40;;
55186;SDS011;55457;52.002;5.464;2023-04-24T05:47:02;0.63;;;0.50;;
55186;SDS011;55457;52.002;5.464;2023-04-24T05:49:27;0.75;;;0.38;;
55186;SDS011;55457;52.002;5.464;2023-04-24T05:51:53;0.40;;;0.40;;
55186;SDS011;55457;52.002;5.464;2023-04-24T05:54:18;0.70;;;0.40;;
55186;SDS011;55457;52.002;5.464;2023-04-24T05:56:43;0.50;;;0.40;;
55186;SDS011;55457;52.002;5.464;2023-04-24T05:59:09;0.77;;;0.40;;
55186;SDS011;55457;52.002;5.464;2023-04-24T06:01:34;0.65;;;0.60;;
55186;SDS011;55457;52.002;5.464;2023-04-24T06:04:01;0.60;;;0.40;;
55186;SDS011;55457;52.002;5.464;2023-04-24T06:06:27;0.55;;;0.50;;
55186;SDS011;55457;52.002;5.464;2023-04-24T06:08:52;0.43;;;0.43;;
55186;SDS011;55457;52.002;5.464;2023-04-24T06:11:18;0.65;;;0.38;;
55186;SDS011;55457;52.002;5.464;2023-04-24T06:13:43;0.55;;;0.50;;
55186;SDS011;55457;52.002;5.464;2023-04-24T06:16:08;0.70;;;0.40;;
55186;SDS011;55457;52.002;5.464;2023-04-24T06:18:34;0.82;;;0.50;;
55186;SDS011;55457;52.002;5.464;2023-04-24T06:20:59;0.45;;;0.43;;
55186;SDS011;55457;52.002;5.464;2023-04-24T06:23:25;0.68;;;0.57;;
55186;SDS011;55457;52.002;5.464;2023-04-24T06:25:50;0.45;;;0.30;;
55186;SDS011;55457;52.002;5.464;2023-04-24T06:28:16;0.40;;;0.40;;
55186;SDS011;55457;52.002;5.464;2023-04-24T06:30:41;0.82;;;0.43;;
55186;SDS011;55457;52.002;5.464;2023-04-24T06:33:08;0.63;;;0.38;;
55186;SDS011;55457;52.002;5.464;2023-04-24T06:35:33;0.77;;;0.40;;
55186;SDS011;55457;52.002;5.464;2023-04-24T06:37:58;0.30;;;0.30;;
55186;SDS011;55457;52.002;5.464;2023-04-24T06:40:24;0.73;;;0.40;;
55186;SDS011;55457;52.002;5.464;2023-04-24T06:42:50;0.57;;;0.32;;
55186;SDS011;55457;52.002;5.464;2023-04-24T06:45:15;0.52;;;0.20;;
55186;SDS011;55457;52.002;5.464;2023-04-24T06:47:40;0.95;;;0.88;;
55186;SDS011;55457;52.002;5.464;2023-04-24T06:50:06;0.47;;;0.47;;
55186;SDS011;55457;52.002;5.464;2023-04-24T06:52:31;0.88;;;0.40;;
55186;SDS011;55457;52.002;5.464;2023-04-24T06:55:03;1.10;;;0.38;;
55186;SDS011;55457;52.002;5.464;2023-04-24T06:57:29;0.50;;;0.38;;
55186;SDS011;55457;52.002;5.464;2023-04-24T06:59:55;0.60;;;0.45;;
55186;SDS011;55457;52.002;5.464;2023-04-24T07:02:21;0.80;;;0.45;;
55186;SDS011;55457;52.002;5.464;2023-04-24T07:04:46;0.50;;;0.40;;
55186;SDS011;55457;52.002;5.464;2023-04-24T07:07:12;0.57;;;0.50;;
55186;SDS011;55457;52.002;5.464;2023-04-24T07:09:39;0.82;;;0.47;;
55186;SDS011;55457;52.002;5.464;2023-04-24T07:12:07;1.40;;;0.55;;
55186;SDS011;55457;52.002;5.464;2023-04-24T07:14:33;1.02;;;0.60;;
55186;SDS011;55457;52.002;5.464;2023-04-24T07:16:58;0.32;;;0.30;;
55186;SDS011;55457;52.002;5.464;2023-04-24T07:19:23;1.10;;;0.40;;
55186;SDS011;55457;52.002;5.464;2023-04-24T07:21:49;0.93;;;0.63;;
55186;SDS011;55457;52.002;5.464;2023-04-24T07:24:14;1.08;;;0.60;;
55186;SDS011;55457;52.002;5.464;2023-04-24T07:26:40;0.88;;;0.73;;
55186;SDS011;55457;52.002;5.464;2023-04-24T07:29:05;0.32;;;0.32;;
55186;SDS011;55457;52.002;5.464;2023-04-24T07:31:31;1.13;;;0.50;;
55186;SDS011;55457;52.002;5.464;2023-04-24T07:33:57;1.50;;;0.50;;
55186;SDS011;55457;52.002;5.464;2023-04-24T07:36:23;1.17;;;0.70;;
55186;SDS011;55457;52.002;5.464;2023-04-24T07:38:49;0.80;;;0.63;;
55186;SDS011;55457;52.002;5.464;2023-04-24T07:41:15;0.90;;;0.55;;
55186;SDS011;55457;52.002;5.464;2023-04-24T07:43:40;1.80;;;0.93;;
55186;SDS011;55457;52.002;5.464;2023-04-24T07:46:06;0.55;;;0.50;;
55186;SDS011;55457;52.002;5.464;2023-04-24T07:48:32;0.75;;;0.65;;
55186;SDS011;55457;52.002;5.464;2023-04-24T07:50:57;1.42;;;1.00;;
55186;SDS011;55457;52.002;5.464;2023-04-24T07:53:23;1.10;;;0.85;;
55186;SDS011;55457;52.002;5.464;2023-04-24T07:55:48;0.75;;;0.75;;
55186;SDS011;55457;52.002;5.464;2023-04-24T07:58:14;1.33;;;1.13;;
55186;SDS011;55457;52.002;5.464;2023-04-24T08:00:40;1.25;;;1.13;;
55186;SDS011;55457;52.002;5.464;2023-04-24T08:03:05;0.80;;;0.75;;
55186;SDS011;55457;52.002;5.464;2023-04-24T08:05:30;1.15;;;0.88;;
55186;SDS011;55457;52.002;5.464;2023-04-24T08:07:56;1.23;;;0.60;;
55186;SDS011;55457;52.002;5.464;2023-04-24T08:10:22;1.17;;;0.88;;
55186;SDS011;55457;52.002;5.464;2023-04-24T08:12:48;1.30;;;1.02;;
55186;SDS011;55457;52.002;5.464;2023-04-24T08:15:15;1.20;;;1.05;;
55186;SDS011;55457;52.002;5.464;2023-04-24T08:17:40;1.40;;;1.00;;
55186;SDS011;55457;52.002;5.464;2023-04-24T08:20:06;1.83;;;1.13;;
55186;SDS011;55457;52.002;5.464;2023-04-24T08:22:38;0.90;;;0.70;;
55186;SDS011;55457;52.002;5.464;2023-04-24T08:25:04;2.05;;;1.13;;
55186;SDS011;55457;52.002;5.464;2023-04-24T08:27:30;1.80;;;1.38;;
55186;SDS011;55457;52.002;5.464;2023-04-24T08:29:56;1.67;;;1.10;;
55186;SDS011;55457;52.002;5.464;2023-04-24T08:32:22;1.60;;;1.05;;
55186;SDS011;55457;52.002;5.464;2023-04-24T08:34:48;2.50;;;1.10;;
55186;SDS011;55457;52.002;5.464;2023-04-24T08:37:13;1.20;;;0.90;;
55186;SDS011;55457;52.002;5.464;2023-04-24T08:39:38;3.45;;;1.58;;
55186;SDS011;55457;52.002;5.464;2023-04-24T08:42:04;2.00;;;1.05;;
55186;SDS011;55457;52.002;5.464;2023-04-24T08:44:32;3.70;;;1.20;;
55186;SDS011;55457;52.002;5.464;2023-04-24T08:46:59;1.90;;;1.30;;
55186;SDS011;55457;52.002;5.464;2023-04-24T08:49:26;2.33;;;1.33;;
55186;SDS011;55457;52.002;5.464;2023-04-24T08:51:53;1.73;;;1.10;;
55186;SDS011;55457;52.002;5.464;2023-04-24T08:54:18;2.08;;;1.30;;
55186;SDS011;55457;52.002;5.464;2023-04-24T08:56:44;2.20;;;1.25;;
55186;SDS011;55457;52.002;5.464;2023-04-24T08:59:13;1.67;;;1.15;;
55186;SDS011;55457;52.002;5.464;2023-04-24T09:01:39;2.00;;;1.40;;
55186;SDS011;55457;52.002;5.464;2023-04-24T09:04:05;3.30;;;1.30;;
55186;SDS011;55457;52.002;5.464;2023-04-24T09:06:34;2.42;;;1.33;;
55186;SDS011;55457;52.002;5.464;2023-04-24T09:09:00;2.08;;;1.35;;
55186;SDS011;55457;52.002;5.464;2023-04-24T09:11:26;3.38;;;1.70;;
55186;SDS011;55457;52.002;5.464;2023-04-24T09:13:53;2.72;;;1.48;;
55186;SDS011;55457;52.002;5.464;2023-04-24T09:16:19;2.72;;;1.60;;
55186;SDS011;55457;52.002;5.464;2023-04-24T09:18:45;1.83;;;1.30;;
55186;SDS011;55457;52.002;5.464;2023-04-24T09:21:10;2.30;;;1.38;;
55186;SDS011;55457;52.002;5.464;2023-04-24T09:23:36;3.17;;;1.23;;
55186;SDS011;55457;52.002;5.464;2023-04-24T09:26:02;5.75;;;1.70;;
55186;SDS011;55457;52.002;5.464;2023-04-24T09:28:30;2.78;;;1.88;;
55186;SDS011;55457;52.002;5.464;2023-04-24T09:33:40;3.08;;;1.60;;
55186;SDS011;55457;52.002;5.464;2023-04-24T09:36:32;3.63;;;1.40;;
55186;SDS011;55457;52.002;5.464;2023-04-24T09:39:09;2.00;;;1.27;;
55186;SDS011;55457;52.002;5.464;2023-04-24T09:41:44;2.20;;;1.35;;
55186;SDS011;55457;52.002;5.464;2023-04-24T09:44:14;2.35;;;1.38;;
55186;SDS011;55457;52.002;5.464;2023-04-24T09:46:50;1.80;;;1.33;;
55186;SDS011;55457;52.002;5.464;2023-04-24T09:49:22;2.40;;;1.33;;
55186;SDS011;55457;52.002;5.464;2023-04-24T09:51:52;2.72;;;1.48;;
55186;SDS011;55457;52.002;5.464;2023-04-24T09:54:28;2.20;;;1.35;;
55186;SDS011;55457;52.002;5.464;2023-04-24T09:56:54;5.60;;;1.63;;
55186;SDS011;55457;52.002;5.464;2023-04-24T09:59:20;1.90;;;1.40;;
55186;SDS011;55457;52.002;5.464;2023-04-24T10:01:45;1.65;;;1.38;;
55186;SDS011;55457;52.002;5.464;2023-04-24T10:06:43;3.03;;;1.27;;
55186;SDS011;55457;52.002;5.464;2023-04-24T10:09:08;2.35;;;1.15;;
55186;SDS011;55457;52.002;5.464;2023-04-24T10:11:36;3.88;;;1.55;;
55186;SDS011;55457;52.002;5.464;2023-04-24T10:14:02;2.55;;;1.33;;
55186;SDS011;55457;52.002;5.464;2023-04-24T10:16:28;1.85;;;1.50;;
55186;SDS011;55457;52.002;5.464;2023-04-24T10:18:55;3.53;;;1.70;;
55186;SDS011;55457;52.002;5.464;2023-04-24T10:21:23;3.95;;;1.52;;
55186;SDS011;55457;52.002;5.464;2023-04-24T10:23:49;2.72;;;1.40;;
55186;SDS011;55457;52.002;5.464;2023-04-24T10:26:16;1.63;;;1.33;;
55186;SDS011;55457;52.002;5.464;2023-04-24T10:28:46;2.72;;;1.42;;
55186;SDS011;55457;52.002;5.464;2023-04-24T10:31:12;4.25;;;1.63;;
55186;SDS011;55457;52.002;5.464;2023-04-24T10:33:38;3.17;;;1.95;;
55186;SDS011;55457;52.002;5.464;2023-04-24T10:36:06;2.50;;;1.52;;
55186;SDS011;55457;52.002;5.464;2023-04-24T10:38:34;3.33;;;1.95;;
55186;SDS011;55457;52.002;5.464;2023-04-24T10:41:11;2.78;;;1.40;;
55186;SDS011;55457;52.002;5.464;2023-04-24T10:43:48;2.28;;;1.38;;
55186;SDS011;55457;52.002;5.464;2023-04-24T10:46:21;2.22;;;1.48;;
55186;SDS011;55457;52.002;5.464;2023-04-24T10:48:53;1.85;;;1.23;;
55186;SDS011;55457;52.002;5.464;2023-04-24T10:51:21;2.20;;;1.40;;
55186;SDS011;55457;52.002;5.464;2023-04-24T10:53:49;3.67;;;1.80;;
55186;SDS011;55457;52.002;5.464;2023-04-24T10:56:17;2.60;;;1.58;;
55186;SDS011;55457;52.002;5.464;2023-04-24T10:58:50;2.38;;;1.52;;
55186;SDS011;55457;52.002;5.464;2023-04-24T11:01:24;1.70;;;1.02;;
55186;SDS011;55457;52.002;5.464;2023-04-24T11:03:54;2.38;;;1.20;;
55186;SDS011;55457;52.002;5.464;2023-04-24T11:06:30;1.98;;;1.27;;
55186;SDS011;55457;52.002;5.464;2023-04-24T11:09:07;1.83;;;1.40;;
55186;SDS011;55457;52.002;5.464;2023-04-24T11:11:35;2.60;;;1.42;;
55186;SDS011;55457;52.002;5.464;2023-04-24T11:14:03;2.50;;;1.50;;
55186;SDS011;55457;52.002;5.464;2023-04-24T11:16:44;3.38;;;1.70;;
55186;SDS011;55457;52.002;5.464;2023-04-24T11:24:30;1.73;;;1.25;;
55186;SDS011;55457;52.002;5.464;2023-04-24T11:27:17;3.80;;;1.67;;
55186;SDS011;55457;52.002;5.464;2023-04-24T11:29:45;3.50;;;1.40;;
55186;SDS011;55457;52.002;5.464;2023-04-24T11:32:26;4.63;;;1.45;;
55186;SDS011;55457;52.002;5.464;2023-04-24T11:34:55;2.65;;;0.90;;
55186;SDS011;55457;52.002;5.464;2023-04-24T11:37:22;2.15;;;1.27;;
55186;SDS011;55457;52.002;5.464;2023-04-24T11:39:53;4.68;;;1.55;;
55186;SDS011;55457;52.002;5.464;2023-04-24T11:42:20;3.80;;;1.35;;
55186;SDS011;55457;52.002;5.464;2023-04-24T11:44:47;2.53;;;1.35;;
55186;SDS011;55457;52.002;5.464;2023-04-24T11:47:12;2.35;;;1.25;;
55186;SDS011;55457;52.002;5.464;2023-04-24T11:49:38;2.90;;;1.42;;
55186;SDS011;55457;52.002;5.464;2023-04-24T11:52:04;2.22;;;1.33;;
55186;SDS011;55457;52.002;5.464;2023-04-24T11:54:30;3.38;;;1.30;;
55186;SDS011;55457;52.002;5.464;2023-04-24T11:56:56;2.85;;;1.27;;
55186;SDS011;55457;52.002;5.464;2023-04-24T11:59:22;2.25;;;1.08;;
55186;SDS011;55457;52.002;5.464;2023-04-24T12:01:48;1.95;;;1.17;;
55186;SDS011;55457;52.002;5.464;2023-04-24T12:04:14;3.50;;;0.98;;
55186;SDS011;55457;52.002;5.464;2023-04-24T12:07:02;3.00;;;1.30;;
55186;SDS011;55457;52.002;5.464;2023-04-24T12:12:34;3.55;;;1.48;;
55186;SDS011;55457;52.002;5.464;2023-04-24T12:15:00;2.67;;;1.35;;
55186;SDS011;55457;52.002;5.464;2023-04-24T12:17:30;2.10;;;1.27;;
55186;SDS011;55457;52.002;5.464;2023-04-24T12:20:00;1.85;;;1.08;;
55186;SDS011;55457;52.002;5.464;2023-04-24T12:25:19;1.95;;;0.98;;
55186;SDS011;55457;52.002;5.464;2023-04-24T12:27:53;3.13;;;1.48;;
55186;SDS011;55457;52.002;5.464;2023-04-24T12:30:20;2.08;;;1.08;;
55186;SDS011;55457;52.002;5.464;2023-04-24T12:32:47;1.90;;;1.30;;
55186;SDS011;55457;52.002;5.464;2023-04-24T12:35:18;1.13;;;0.90;;
55186;SDS011;55457;52.002;5.464;2023-04-24T12:37:45;3.30;;;1.48;;
55186;SDS011;55457;52.002;5.464;2023-04-24T12:40:11;1.95;;;1.55;;
55186;SDS011;55457;52.002;5.464;2023-04-24T12:42:44;1.20;;;1.10;;
55186;SDS011;55457;52.002;5.464;2023-04-24T12:45:11;3.22;;;1.13;;
55186;SDS011;55457;52.002;5.464;2023-04-24T12:47:38;3.58;;;1.70;;
55186;SDS011;55457;52.002;5.464;2023-04-24T12:50:07;3.03;;;1.30;;
55186;SDS011;55457;52.002;5.464;2023-04-24T12:52:33;2.88;;;1.38;;
55186;SDS011;55457;52.002;5.464;2023-04-24T12:55:00;1.83;;;0.98;;
55186;SDS011;55457;52.002;5.464;2023-04-24T12:57:26;3.28;;;1.42;;
55186;SDS011;55457;52.002;5.464;2023-04-24T12:59:57;1.98;;;1.10;;
55186;SDS011;55457;52.002;5.464;2023-04-24T13:02:24;1.65;;;1.17;;
55186;SDS011;55457;52.002;5.464;2023-04-24T13:04:51;2.17;;;1.50;;
55186;SDS011;55457;52.002;5.464;2023-04-24T13:07:16;1.42;;;1.10;;
55186;SDS011;55457;52.002;5.464;2023-04-24T13:09:42;3.05;;;1.25;;
55186;SDS011;55457;52.002;5.464;2023-04-24T13:12:08;2.72;;;1.45;;
55186;SDS011;55457;52.002;5.464;2023-04-24T13:14:34;1.85;;;1.17;;
55186;SDS011;55457;52.002;5.464;2023-04-24T13:17:00;2.15;;;1.10;;
55186;SDS011;55457;52.002;5.464;2023-04-24T13:19:26;2.00;;;1.00;;
55186;SDS011;55457;52.002;5.464;2023-04-24T13:21:53;2.45;;;1.00;;
55186;SDS011;55457;52.002;5.464;2023-04-24T13:24:20;3.58;;;1.30;;
55186;SDS011;55457;52.002;5.464;2023-04-24T13:26:46;2.83;;;1.10;;
55186;SDS011;55457;52.002;5.464;2023-04-24T13:29:11;3.10;;;1.67;;
55186;SDS011;55457;52.002;5.464;2023-04-24T13:31:36;3.45;;;1.70;;
55186;SDS011;55457;52.002;5.464;2023-04-24T13:34:02;1.60;;;0.88;;
55186;SDS011;55457;52.002;5.464;2023-04-24T13:36:28;1.55;;;0.90;;
55186;SDS011;55457;52.002;5.464;2023-04-24T13:38:53;1.40;;;0.70;;
55186;SDS011;55457;52.002;5.464;2023-04-24T13:41:18;2.63;;;1.45;;
55186;SDS011;55457;52.002;5.464;2023-04-24T13:43:44;1.50;;;0.75;;
55186;SDS011;55457;52.002;5.464;2023-04-24T13:46:09;2.33;;;1.20;;
55186;SDS011;55457;52.002;5.464;2023-04-24T13:48:35;1.63;;;1.10;;
55186;SDS011;55457;52.002;5.464;2023-04-24T13:51:00;3.97;;;1.10;;
55186;SDS011;55457;52.002;5.464;2023-04-24T13:53:25;2.10;;;1.20;;
55186;SDS011;55457;52.002;5.464;2023-04-24T13:55:51;1.90;;;1.02;;
55186;SDS011;55457;52.002;5.464;2023-04-24T13:58:16;2.65;;;1.20;;
55186;SDS011;55457;52.002;5.464;2023-04-24T14:00:42;3.95;;;1.33;;
55186;SDS011;55457;52.002;5.464;2023-04-24T14:03:07;1.55;;;1.00;;
55186;SDS011;55457;52.002;5.464;2023-04-24T14:05:32;1.67;;;0.90;;
55186;SDS011;55457;52.002;5.464;2023-04-24T14:07:58;2.55;;;1.20;;
55186;SDS011;55457;52.002;5.464;2023-04-24T14:10:23;3.20;;;1.10;;
55186;SDS011;55457;52.002;5.464;2023-04-24T14:12:49;1.83;;;1.00;;
55186;SDS011;55457;52.002;5.464;2023-04-24T14:15:15;2.22;;;0.95;;
55186;SDS011;55457;52.002;5.464;2023-04-24T14:17:41;2.95;;;0.98;;
55186;SDS011;55457;52.002;5.464;2023-04-24T14:20:07;1.42;;;0.95;;
55186;SDS011;55457;52.002;5.464;2023-04-24T14:22:34;1.50;;;1.00;;
55186;SDS011;55457;52.002;5.464;2023-04-24T14:24:59;2.90;;;1.35;;
55186;SDS011;55457;52.002;5.464;2023-04-24T14:27:24;2.85;;;1.30;;
55186;SDS011;55457;52.002;5.464;2023-04-24T14:29:50;2.35;;;1.10;;
55186;SDS011;55457;52.002;5.464;2023-04-24T14:32:16;3.00;;;1.23;;
55186;SDS011;55457;52.002;5.464;2023-04-24T14:34:41;3.47;;;1.10;;
55186;SDS011;55457;52.002;5.464;2023-04-24T14:37:07;3.47;;;1.05;;
55186;SDS011;55457;52.002;5.464;2023-04-24T14:39:32;3.10;;;1.10;;
55186;SDS011;55457;52.002;5.464;2023-04-24T14:41:57;1.25;;;0.90;;
55186;SDS011;55457;52.002;5.464;2023-04-24T14:44:23;2.05;;;1.08;;
55186;SDS011;55457;52.002;5.464;2023-04-24T14:46:48;3.40;;;1.92;;
55186;SDS011;55457;52.002;5.464;2023-04-24T14:49:14;2.42;;;1.23;;
55186;SDS011;55457;52.002;5.464;2023-04-24T14:51:40;2.67;;;1.45;;
55186;SDS011;55457;52.002;5.464;2023-04-24T14:54:06;2.55;;;1.10;;
55186;SDS011;55457;52.002;5.464;2023-04-24T14:56:32;1.95;;;1.00;;
55186;SDS011;55457;52.002;5.464;2023-04-24T14:58:57;1.58;;;0.95;;
55186;SDS011;55457;52.002;5.464;2023-04-24T15:01:23;2.85;;;1.33;;